sensor_id;sensor_type;location;lat;lon;timestamp;temperature;humidity
51853;DHT22;37894;53.172;6.598;2023-03-14T00:01:23;9.40;99.90
51853;DHT22;37894;53.172;6.598;2023-03-14T00:06:15;9.80;99.90
51853;DHT22;37894;53.172;6.598;2023-03-14T00:08:42;9.70;99.90
51853;DHT22;37894;53.172;6.598;2023-03-14T00:11:17;9.80;99.90
51853;DHT22;37894;53.172;6.598;2023-03-14T00:13:43;9.80;99.90
51853;DHT22;37894;53.172;6.598;2023-03-14T00:16:11;9.70;99.90
51853;DHT22;37894;53.172;6.598;2023-03-14T00:18:37;10.50;99.90
51853;DHT22;37894;53.172;6.598;2023-03-14T00:21:05;9.70;99.90
51853;DHT22;37894;53.172;6.598;2023-03-14T00:23:33;9.90;99.90
51853;DHT22;37894;53.172;6.598;2023-03-14T00:26:04;9.90;99.90
51853;DHT22;37894;53.172;6.598;2023-03-14T00:28:30;10.40;99.90
51853;DHT22;37894;53.172;6.598;2023-03-14T00:33:22;9.70;99.90
51853;DHT22;37894;53.172;6.598;2023-03-14T00:35:58;10.00;99.90
51853;DHT22;37894;53.172;6.598;2023-03-14T00:38:25;10.30;99.90
51853;DHT22;37894;53.172;6.598;2023-03-14T00:40:51;9.70;99.90
51853;DHT22;37894;53.172;6.598;2023-03-14T00:43:18;10.30;99.90
51853;DHT22;37894;53.172;6.598;2023-03-14T00:45:44;10.10;99.90
51853;DHT22;37894;53.172;6.598;2023-03-14T00:48:10;9.40;99.90
51853;DHT22;37894;53.172;6.598;2023-03-14T00:53:02;10.20;99.90
51853;DHT22;37894;53.172;6.598;2023-03-14T00:55:27;10.10;99.90
51853;DHT22;37894;53.172;6.598;2023-03-14T00:57:53;10.30;99.90
51853;DHT22;37894;53.172;6.598;2023-03-14T01:00:18;11.00;99.90
51853;DHT22;37894;53.172;6.598;2023-03-14T01:02:44;11.00;99.90
51853;DHT22;37894;53.172;6.598;2023-03-14T01:05:10;9.90;99.90
51853;DHT22;37894;53.172;6.598;2023-03-14T01:07:36;10.10;99.90
51853;DHT22;37894;53.172;6.598;2023-03-14T01:10:04;9.60;99.90
51853;DHT22;37894;53.172;6.598;2023-03-14T01:12:30;10.20;99.90
51853;DHT22;37894;53.172;6.598;2023-03-14T01:14:55;9.90;99.90
51853;DHT22;37894;53.172;6.598;2023-03-14T01:17:21;10.50;99.90
51853;DHT22;37894;53.172;6.598;2023-03-14T01:19:47;10.30;99.90
51853;DHT22;37894;53.172;6.598;2023-03-14T01:22:13;10.00;99.90
51853;DHT22;37894;53.172;6.598;2023-03-14T01:24:39;9.80;99.90
51853;DHT22;37894;53.172;6.598;2023-03-14T01:27:05;10.60;99.90
51853;DHT22;37894;53.172;6.598;2023-03-14T01:31:57;10.20;99.90
51853;DHT22;37894;53.172;6.598;2023-03-14T01:36:49;10.00;99.90
51853;DHT22;37894;53.172;6.598;2023-03-14T01:39:14;10.00;99.90
51853;DHT22;37894;53.172;6.598;2023-03-14T01:41:40;10.60;99.90
51853;DHT22;37894;53.172;6.598;2023-03-14T01:44:10;10.40;99.90
51853;DHT22;37894;53.172;6.598;2023-03-14T01:46:38;10.10;99.90
51853;DHT22;37894;53.172;6.598;2023-03-14T01:51:54;10.60;99.90
51853;DHT22;37894;53.172;6.598;2023-03-14T01:54:34;10.80;99.90
51853;DHT22;37894;53.172;6.598;2023-03-14T01:57:28;10.80;99.90
51853;DHT22;37894;53.172;6.598;2023-03-14T02:00:04;10.10;99.90
51853;DHT22;37894;53.172;6.598;2023-03-14T02:02:37;10.40;99.90
51853;DHT22;37894;53.172;6.598;2023-03-14T02:05:05;10.50;99.90
51853;DHT22;37894;53.172;6.598;2023-03-14T02:07:44;10.50;99.90
51853;DHT22;37894;53.172;6.598;2023-03-14T02:10:11;10.60;99.90
51853;DHT22;37894;53.172;6.598;2023-03-14T02:12:37;10.90;99.90
51853;DHT22;37894;53.172;6.598;2023-03-14T02:22:33;10.30;99.90
51853;DHT22;37894;53.172;6.598;2023-03-14T02:27:31;10.30;99.90
51853;DHT22;37894;53.172;6.598;2023-03-14T02:30:06;10.80;99.90
51853;DHT22;37894;53.172;6.598;2023-03-14T02:32:34;9.90;99.90
51853;DHT22;37894;53.172;6.598;2023-03-14T02:35:05;10.10;99.90
51853;DHT22;37894;53.172;6.598;2023-03-14T02:37:37;9.20;99.90
51853;DHT22;37894;53.172;6.598;2023-03-14T02:40:04;10.00;99.90
51853;DHT22;37894;53.172;6.598;2023-03-14T02:42:30;9.60;99.90
51853;DHT22;37894;53.172;6.598;2023-03-14T02:47:34;9.90;99.90
51853;DHT22;37894;53.172;6.598;2023-03-14T02:50:17;10.00;99.90
51853;DHT22;37894;53.172;6.598;2023-03-14T02:52:44;9.30;99.90
51853;DHT22;37894;53.172;6.598;2023-03-14T02:55:09;9.80;99.90
51853;DHT22;37894;53.172;6.598;2023-03-14T02:57:35;9.70;99.90
51853;DHT22;37894;53.172;6.598;2023-03-14T03:00:02;9.70;99.90
51853;DHT22;37894;53.172;6.598;2023-03-14T03:02:32;12.20;99.90
51853;DHT22;37894;53.172;6.598;2023-03-14T03:04:57;9.70;99.90
51853;DHT22;37894;53.172;6.598;2023-03-14T03:07:24;9.20;99.90
51853;DHT22;37894;53.172;6.598;2023-03-14T03:09:49;9.80;99.90
51853;DHT22;37894;53.172;6.598;2023-03-14T03:12:15;9.50;99.90
51853;DHT22;37894;53.172;6.598;2023-03-14T03:14:41;10.80;99.90
51853;DHT22;37894;53.172;6.598;2023-03-14T03:17:07;10.70;99.90
51853;DHT22;37894;53.172;6.598;2023-03-14T03:19:34;9.80;99.90
51853;DHT22;37894;53.172;6.598;2023-03-14T03:22:00;9.90;99.90
51853;DHT22;37894;53.172;6.598;2023-03-14T03:24:26;9.30;99.90
51853;DHT22;37894;53.172;6.598;2023-03-14T03:26:53;9.50;99.90
51853;DHT22;37894;53.172;6.598;2023-03-14T03:29:18;10.20;99.90
51853;DHT22;37894;53.172;6.598;2023-03-14T03:34:11;9.20;99.90
51853;DHT22;37894;53.172;6.598;2023-03-14T03:36:37;9.40;99.90
51853;DHT22;37894;53.172;6.598;2023-03-14T03:41:30;9.00;99.90
51853;DHT22;37894;53.172;6.598;2023-03-14T03:46:22;8.60;99.90
51853;DHT22;37894;53.172;6.598;2023-03-14T03:51:15;8.90;99.90
51853;DHT22;37894;53.172;6.598;2023-03-14T03:53:42;8.90;99.90
51853;DHT22;37894;53.172;6.598;2023-03-14T03:56:08;9.70;99.90
51853;DHT22;37894;53.172;6.598;2023-03-14T03:58:34;8.40;99.90
51853;DHT22;37894;53.172;6.598;2023-03-14T04:01:00;8.90;99.90
51853;DHT22;37894;53.172;6.598;2023-03-14T04:06:05;8.80;99.90
51853;DHT22;37894;53.172;6.598;2023-03-14T04:08:31;8.50;99.90
51853;DHT22;37894;53.172;6.598;2023-03-14T04:10:58;8.80;99.90
51853;DHT22;37894;53.172;6.598;2023-03-14T04:13:25;8.80;99.90
51853;DHT22;37894;53.172;6.598;2023-03-14T04:15:51;9.20;99.90
51853;DHT22;37894;53.172;6.598;2023-03-14T04:18:17;8.90;99.90
51853;DHT22;37894;53.172;6.598;2023-03-14T04:23:09;9.60;99.90
51853;DHT22;37894;53.172;6.598;2023-03-14T04:28:01;8.60;99.90
51853;DHT22;37894;53.172;6.598;2023-03-14T04:30:27;8.90;99.90
51853;DHT22;37894;53.172;6.598;2023-03-14T04:32:52;8.60;99.90
51853;DHT22;37894;53.172;6.598;2023-03-14T04:35:18;9.60;99.90
51853;DHT22;37894;53.172;6.598;2023-03-14T04:37:44;9.00;99.90
51853;DHT22;37894;53.172;6.598;2023-03-14T04:40:10;8.60;99.90
51853;DHT22;37894;53.172;6.598;2023-03-14T04:42:36;8.00;99.90
51853;DHT22;37894;53.172;6.598;2023-03-14T04:45:02;8.30;99.90
51853;DHT22;37894;53.172;6.598;2023-03-14T04:47:28;8.60;99.90
51853;DHT22;37894;53.172;6.598;2023-03-14T04:52:20;8.90;99.90
51853;DHT22;37894;53.172;6.598;2023-03-14T04:54:46;8.90;99.90
51853;DHT22;37894;53.172;6.598;2023-03-14T04:57:11;8.70;99.90
51853;DHT22;37894;53.172;6.598;2023-03-14T04:59:37;8.40;99.90
51853;DHT22;37894;53.172;6.598;2023-03-14T05:02:02;8.40;99.90
51853;DHT22;37894;53.172;6.598;2023-03-14T05:04:28;9.50;99.90
51853;DHT22;37894;53.172;6.598;2023-03-14T05:06:54;9.40;99.90
51853;DHT22;37894;53.172;6.598;2023-03-14T05:09:20;9.30;99.90
51853;DHT22;37894;53.172;6.598;2023-03-14T05:14:12;8.70;99.90
51853;DHT22;37894;53.172;6.598;2023-03-14T05:16:37;8.40;99.90
51853;DHT22;37894;53.172;6.598;2023-03-14T05:19:03;8.20;99.90
51853;DHT22;37894;53.172;6.598;2023-03-14T05:21:29;8.90;99.90
51853;DHT22;37894;53.172;6.598;2023-03-14T05:23:54;9.00;99.90
51853;DHT22;37894;53.172;6.598;2023-03-14T05:26:20;8.20;99.90
51853;DHT22;37894;53.172;6.598;2023-03-14T05:28:46;9.40;99.90
51853;DHT22;37894;53.172;6.598;2023-03-14T05:31:11;8.20;99.90
51853;DHT22;37894;53.172;6.598;2023-03-14T05:33:37;8.50;99.90
51853;DHT22;37894;53.172;6.598;2023-03-14T05:36:03;8.60;99.90
51853;DHT22;37894;53.172;6.598;2023-03-14T05:38:29;8.50;99.90
51853;DHT22;37894;53.172;6.598;2023-03-14T05:40:54;8.60;99.90
51853;DHT22;37894;53.172;6.598;2023-03-14T05:43:20;8.60;99.90
51853;DHT22;37894;53.172;6.598;2023-03-14T05:45:46;8.10;99.90
51853;DHT22;37894;53.172;6.598;2023-03-14T05:48:11;8.50;99.90
51853;DHT22;37894;53.172;6.598;2023-03-14T05:50:37;8.10;99.90
51853;DHT22;37894;53.172;6.598;2023-03-14T05:53:03;9.00;99.90
51853;DHT22;37894;53.172;6.598;2023-03-14T05:55:29;8.80;99.90
51853;DHT22;37894;53.172;6.598;2023-03-14T05:57:55;7.80;99.90
51853;DHT22;37894;53.172;6.598;2023-03-14T06:00:21;8.40;99.90
51853;DHT22;37894;53.172;6.598;2023-03-14T06:05:13;8.40;99.90
51853;DHT22;37894;53.172;6.598;2023-03-14T06:07:39;8.80;99.90
51853;DHT22;37894;53.172;6.598;2023-03-14T06:10:05;9.50;99.90
51853;DHT22;37894;53.172;6.598;2023-03-14T06:12:31;8.60;99.90
51853;DHT22;37894;53.172;6.598;2023-03-14T06:14:56;8.40;99.90
51853;DHT22;37894;53.172;6.598;2023-03-14T06:17:22;8.60;99.90
51853;DHT22;37894;53.172;6.598;2023-03-14T06:19:48;8.20;99.90
51853;DHT22;37894;53.172;6.598;2023-03-14T06:24:39;7.50;99.90
51853;DHT22;37894;53.172;6.598;2023-03-14T06:27:05;8.70;99.90
51853;DHT22;37894;53.172;6.598;2023-03-14T06:31:57;8.30;99.90
51853;DHT22;37894;53.172;6.598;2023-03-14T06:36:49;8.40;99.90
51853;DHT22;37894;53.172;6.598;2023-03-14T06:39:14;8.60;99.90
51853;DHT22;37894;53.172;6.598;2023-03-14T06:44:06;7.50;99.90
51853;DHT22;37894;53.172;6.598;2023-03-14T06:48:58;7.20;99.90
51853;DHT22;37894;53.172;6.598;2023-03-14T06:51:23;7.10;99.90
51853;DHT22;37894;53.172;6.598;2023-03-14T06:56:17;6.90;99.90
51853;DHT22;37894;53.172;6.598;2023-03-14T06:58:42;6.50;99.90
51853;DHT22;37894;53.172;6.598;2023-03-14T07:01:24;6.60;99.90
51853;DHT22;37894;53.172;6.598;2023-03-14T07:06:16;6.40;99.90
51853;DHT22;37894;53.172;6.598;2023-03-14T07:08:42;6.10;99.90
51853;DHT22;37894;53.172;6.598;2023-03-14T07:11:08;6.00;99.90
51853;DHT22;37894;53.172;6.598;2023-03-14T07:13:39;6.00;99.90
51853;DHT22;37894;53.172;6.598;2023-03-14T07:16:06;5.80;99.90
51853;DHT22;37894;53.172;6.598;2023-03-14T07:18:32;5.20;99.90
51853;DHT22;37894;53.172;6.598;2023-03-14T07:20:58;5.50;99.90
51853;DHT22;37894;53.172;6.598;2023-03-14T07:23:24;5.70;99.90
51853;DHT22;37894;53.172;6.598;2023-03-14T07:25:49;5.20;99.90
51853;DHT22;37894;53.172;6.598;2023-03-14T07:28:16;5.10;99.90
51853;DHT22;37894;53.172;6.598;2023-03-14T07:30:42;5.10;99.90
51853;DHT22;37894;53.172;6.598;2023-03-14T07:33:08;4.60;99.90
51853;DHT22;37894;53.172;6.598;2023-03-14T07:40:26;5.10;99.90
51853;DHT22;37894;53.172;6.598;2023-03-14T07:42:51;5.40;99.90
51853;DHT22;37894;53.172;6.598;2023-03-14T07:45:20;4.90;99.90
51853;DHT22;37894;53.172;6.598;2023-03-14T07:50:12;4.50;99.90
51853;DHT22;37894;53.172;6.598;2023-03-14T07:52:38;4.60;99.90
51853;DHT22;37894;53.172;6.598;2023-03-14T07:55:04;4.50;99.90
51853;DHT22;37894;53.172;6.598;2023-03-14T07:57:30;4.50;99.90
51853;DHT22;37894;53.172;6.598;2023-03-14T08:02:21;5.20;99.90
51853;DHT22;37894;53.172;6.598;2023-03-14T08:04:49;3.40;99.90
51853;DHT22;37894;53.172;6.598;2023-03-14T08:07:15;4.20;99.90
51853;DHT22;37894;53.172;6.598;2023-03-14T08:12:07;3.90;99.90
51853;DHT22;37894;53.172;6.598;2023-03-14T08:14:33;4.20;99.90
51853;DHT22;37894;53.172;6.598;2023-03-14T08:16:59;4.20;99.90
51853;DHT22;37894;53.172;6.598;2023-03-14T08:19:25;4.30;99.90
51853;DHT22;37894;53.172;6.598;2023-03-14T08:24:17;4.70;99.90
51853;DHT22;37894;53.172;6.598;2023-03-14T08:26:42;4.10;99.90
51853;DHT22;37894;53.172;6.598;2023-03-14T08:29:08;4.90;99.90
51853;DHT22;37894;53.172;6.598;2023-03-14T08:31:35;4.00;99.90
51853;DHT22;37894;53.172;6.598;2023-03-14T08:34:01;4.80;99.90
51853;DHT22;37894;53.172;6.598;2023-03-14T08:36:27;4.80;99.90
51853;DHT22;37894;53.172;6.598;2023-03-14T08:38:53;5.10;99.90
51853;DHT22;37894;53.172;6.598;2023-03-14T08:41:19;4.40;99.90
51853;DHT22;37894;53.172;6.598;2023-03-14T08:43:45;4.80;99.90
51853;DHT22;37894;53.172;6.598;2023-03-14T08:46:11;5.30;99.90
51853;DHT22;37894;53.172;6.598;2023-03-14T08:48:36;5.20;99.90
51853;DHT22;37894;53.172;6.598;2023-03-14T08:51:11;5.00;99.90
51853;DHT22;37894;53.172;6.598;2023-03-14T08:53:41;5.00;99.90
51853;DHT22;37894;53.172;6.598;2023-03-14T08:56:07;5.00;99.90
51853;DHT22;37894;53.172;6.598;2023-03-14T08:58:35;5.30;99.90
51853;DHT22;37894;53.172;6.598;2023-03-14T09:01:04;4.90;99.90
51853;DHT22;37894;53.172;6.598;2023-03-14T09:06:02;5.60;99.90
51853;DHT22;37894;53.172;6.598;2023-03-14T09:08:28;5.60;99.90
51853;DHT22;37894;53.172;6.598;2023-03-14T09:10:54;5.00;99.90
51853;DHT22;37894;53.172;6.598;2023-03-14T09:15:51;5.90;99.90
51853;DHT22;37894;53.172;6.598;2023-03-14T09:23:09;6.30;99.90
51853;DHT22;37894;53.172;6.598;2023-03-14T09:25:34;6.70;99.90
51853;DHT22;37894;53.172;6.598;2023-03-14T09:28:00;6.20;99.90
51853;DHT22;37894;53.172;6.598;2023-03-14T09:30:26;5.40;99.90
51853;DHT22;37894;53.172;6.598;2023-03-14T09:35:17;6.30;99.90
51853;DHT22;37894;53.172;6.598;2023-03-14T09:37:43;6.20;99.90
51853;DHT22;37894;53.172;6.598;2023-03-14T09:40:14;5.50;99.90
51853;DHT22;37894;53.172;6.598;2023-03-14T09:42:40;6.30;99.90
51853;DHT22;37894;53.172;6.598;2023-03-14T09:45:13;6.20;99.90
51853;DHT22;37894;53.172;6.598;2023-03-14T09:47:43;6.10;99.90
51853;DHT22;37894;53.172;6.598;2023-03-14T09:50:16;5.70;99.90
51853;DHT22;37894;53.172;6.598;2023-03-14T09:52:51;7.20;99.90
51853;DHT22;37894;53.172;6.598;2023-03-14T09:55:21;6.20;99.90
51853;DHT22;37894;53.172;6.598;2023-03-14T09:57:49;6.30;99.90
51853;DHT22;37894;53.172;6.598;2023-03-14T10:00:22;6.20;99.90
51853;DHT22;37894;53.172;6.598;2023-03-14T10:06:08;7.20;99.90
51853;DHT22;37894;53.172;6.598;2023-03-14T10:08:42;6.00;99.90
51853;DHT22;37894;53.172;6.598;2023-03-14T10:11:17;6.40;99.90
51853;DHT22;37894;53.172;6.598;2023-03-14T10:14:10;6.10;99.90
51853;DHT22;37894;53.172;6.598;2023-03-14T10:16:43;6.00;99.90
51853;DHT22;37894;53.172;6.598;2023-03-14T10:19:16;6.20;99.90
51853;DHT22;37894;53.172;6.598;2023-03-14T10:21:53;5.80;99.90
51853;DHT22;37894;53.172;6.598;2023-03-14T10:24:22;6.60;99.90
51853;DHT22;37894;53.172;6.598;2023-03-14T10:26:53;6.40;99.90
51853;DHT22;37894;53.172;6.598;2023-03-14T10:29:19;6.50;99.90
51853;DHT22;37894;53.172;6.598;2023-03-14T10:34:26;6.30;99.90
51853;DHT22;37894;53.172;6.598;2023-03-14T10:36:54;6.60;99.90
51853;DHT22;37894;53.172;6.598;2023-03-14T10:39:42;6.90;99.90
51853;DHT22;37894;53.172;6.598;2023-03-14T10:42:26;7.10;99.90
51853;DHT22;37894;53.172;6.598;2023-03-14T10:45:04;7.10;99.90
51853;DHT22;37894;53.172;6.598;2023-03-14T10:50:22;6.60;99.90
51853;DHT22;37894;53.172;6.598;2023-03-14T10:52:49;7.10;99.90
51853;DHT22;37894;53.172;6.598;2023-03-14T10:57:43;6.50;99.90
51853;DHT22;37894;53.172;6.598;2023-03-14T11:00:21;7.40;99.90
51853;DHT22;37894;53.172;6.598;2023-03-14T11:03:12;7.30;99.90
51853;DHT22;37894;53.172;6.598;2023-03-14T11:05:46;7.40;99.90
51853;DHT22;37894;53.172;6.598;2023-03-14T11:08:20;7.60;99.90
51853;DHT22;37894;53.172;6.598;2023-03-14T11:10:53;7.90;99.90
51853;DHT22;37894;53.172;6.598;2023-03-14T11:13:30;7.30;99.90
51853;DHT22;37894;53.172;6.598;2023-03-14T11:16:26;7.40;99.90
51853;DHT22;37894;53.172;6.598;2023-03-14T11:19:14;7.60;99.90
51853;DHT22;37894;53.172;6.598;2023-03-14T11:27:25;8.00;99.90
51853;DHT22;37894;53.172;6.598;2023-03-14T11:30:21;7.90;99.90
51853;DHT22;37894;53.172;6.598;2023-03-14T11:33:02;7.90;99.90
51853;DHT22;37894;53.172;6.598;2023-03-14T11:41:00;8.20;99.90
51853;DHT22;37894;53.172;6.598;2023-03-14T11:43:33;8.90;99.90
51853;DHT22;37894;53.172;6.598;2023-03-14T11:46:27;8.40;99.90
51853;DHT22;37894;53.172;6.598;2023-03-14T11:52:22;8.20;99.90
51853;DHT22;37894;53.172;6.598;2023-03-14T11:54:58;8.30;99.90
51853;DHT22;37894;53.172;6.598;2023-03-14T12:05:46;8.30;99.90
51853;DHT22;37894;53.172;6.598;2023-03-14T12:09:27;9.20;99.90
51853;DHT22;37894;53.172;6.598;2023-03-14T12:11:48;9.10;99.90
51853;DHT22;37894;53.172;6.598;2023-03-14T12:14:27;8.80;99.90
51853;DHT22;37894;53.172;6.598;2023-03-14T12:16:55;8.50;99.90
51853;DHT22;37894;53.172;6.598;2023-03-14T12:24:19;8.40;99.90
51853;DHT22;37894;53.172;6.598;2023-03-14T12:26:54;8.00;99.90
51853;DHT22;37894;53.172;6.598;2023-03-14T12:31:48;8.00;99.90
51853;DHT22;37894;53.172;6.598;2023-03-14T12:45:22;7.70;99.90
51853;DHT22;37894;53.172;6.598;2023-03-14T12:48:14;8.10;99.90
51853;DHT22;37894;53.172;6.598;2023-03-14T12:50:44;7.30;99.90
51853;DHT22;37894;53.172;6.598;2023-03-14T12:59:36;7.90;99.90
51853;DHT22;37894;53.172;6.598;2023-03-14T13:04:35;7.00;99.90
51853;DHT22;37894;53.172;6.598;2023-03-14T13:07:03;7.60;99.90
51853;DHT22;37894;53.172;6.598;2023-03-14T13:11:58;7.20;99.90
51853;DHT22;37894;53.172;6.598;2023-03-14T13:14:28;7.30;99.90
51853;DHT22;37894;53.172;6.598;2023-03-14T13:16:59;7.10;99.90
51853;DHT22;37894;53.172;6.598;2023-03-14T13:19:29;7.30;99.90
51853;DHT22;37894;53.172;6.598;2023-03-14T13:22:20;7.10;99.90
51853;DHT22;37894;53.172;6.598;2023-03-14T13:24:46;6.90;99.90
51853;DHT22;37894;53.172;6.598;2023-03-14T13:27:20;7.00;99.90
51853;DHT22;37894;53.172;6.598;2023-03-14T13:29:48;6.80;99.90
51853;DHT22;37894;53.172;6.598;2023-03-14T13:32:26;6.90;99.90
51853;DHT22;37894;53.172;6.598;2023-03-14T13:34:56;7.00;99.90
51853;DHT22;37894;53.172;6.598;2023-03-14T13:37:24;7.10;99.90
51853;DHT22;37894;53.172;6.598;2023-03-14T13:39:52;7.90;99.90
51853;DHT22;37894;53.172;6.598;2023-03-14T13:42:18;7.30;99.90
51853;DHT22;37894;53.172;6.598;2023-03-14T13:44:45;7.50;99.90
51853;DHT22;37894;53.172;6.598;2023-03-14T13:47:16;7.80;99.90
51853;DHT22;37894;53.172;6.598;2023-03-14T13:49:43;7.40;99.90
51853;DHT22;37894;53.172;6.598;2023-03-14T13:52:29;6.80;99.90
51853;DHT22;37894;53.172;6.598;2023-03-14T13:54:56;7.90;99.90
51853;DHT22;37894;53.172;6.598;2023-03-14T14:00:06;9.00;99.90
51853;DHT22;37894;53.172;6.598;2023-03-14T14:02:36;9.20;99.90
51853;DHT22;37894;53.172;6.598;2023-03-14T14:05:03;9.20;99.90
51853;DHT22;37894;53.172;6.598;2023-03-14T14:07:29;8.90;99.90
51853;DHT22;37894;53.172;6.598;2023-03-14T14:15:06;8.30;99.90
51853;DHT22;37894;53.172;6.598;2023-03-14T14:17:37;9.00;99.90
51853;DHT22;37894;53.172;6.598;2023-03-14T14:20:07;9.60;99.90
51853;DHT22;37894;53.172;6.598;2023-03-14T14:22:34;9.70;99.90
51853;DHT22;37894;53.172;6.598;2023-03-14T14:25:01;9.60;98.60
51853;DHT22;37894;53.172;6.598;2023-03-14T14:27:37;8.80;96.30
51853;DHT22;37894;53.172;6.598;2023-03-14T14:32:42;7.90;98.00
51853;DHT22;37894;53.172;6.598;2023-03-14T14:35:10;8.00;99.90
51853;DHT22;37894;53.172;6.598;2023-03-14T14:37:42;7.90;99.90
51853;DHT22;37894;53.172;6.598;2023-03-14T14:40:19;7.80;99.60
51853;DHT22;37894;53.172;6.598;2023-03-14T14:42:47;7.70;99.90
51853;DHT22;37894;53.172;6.598;2023-03-14T14:45:24;7.60;99.30
51853;DHT22;37894;53.172;6.598;2023-03-14T14:48:02;7.70;99.90
51853;DHT22;37894;53.172;6.598;2023-03-14T14:52:58;7.50;99.90
51853;DHT22;37894;53.172;6.598;2023-03-14T14:55:32;7.50;99.90
51853;DHT22;37894;53.172;6.598;2023-03-14T14:58:24;7.40;99.90
51853;DHT22;37894;53.172;6.598;2023-03-14T15:00:53;7.50;99.90
51853;DHT22;37894;53.172;6.598;2023-03-14T15:03:20;7.40;99.90
51853;DHT22;37894;53.172;6.598;2023-03-14T15:10:38;7.00;99.90
51853;DHT22;37894;53.172;6.598;2023-03-14T15:15:30;7.70;99.90
51853;DHT22;37894;53.172;6.598;2023-03-14T15:22:51;6.70;99.90
51853;DHT22;37894;53.172;6.598;2023-03-14T15:27:43;6.50;99.90
51853;DHT22;37894;53.172;6.598;2023-03-14T15:30:13;6.50;99.90
51853;DHT22;37894;53.172;6.598;2023-03-14T15:32:39;6.30;99.90
51853;DHT22;37894;53.172;6.598;2023-03-14T15:35:05;6.50;99.90
51853;DHT22;37894;53.172;6.598;2023-03-14T15:37:31;6.20;99.90
51853;DHT22;37894;53.172;6.598;2023-03-14T15:39:57;6.50;99.90
51853;DHT22;37894;53.172;6.598;2023-03-14T15:42:25;6.50;99.90
51853;DHT22;37894;53.172;6.598;2023-03-14T15:44:51;6.30;99.90
51853;DHT22;37894;53.172;6.598;2023-03-14T15:47:16;6.60;99.90
51853;DHT22;37894;53.172;6.598;2023-03-14T15:49:43;6.40;99.90
51853;DHT22;37894;53.172;6.598;2023-03-14T15:52:09;7.30;99.90
51853;DHT22;37894;53.172;6.598;2023-03-14T15:57:01;6.60;99.90
51853;DHT22;37894;53.172;6.598;2023-03-14T16:06:45;6.20;99.90
51853;DHT22;37894;53.172;6.598;2023-03-14T16:09:12;6.50;99.90
51853;DHT22;37894;53.172;6.598;2023-03-14T16:11:38;5.30;99.90
51853;DHT22;37894;53.172;6.598;2023-03-14T16:14:04;6.40;99.90
51853;DHT22;37894;53.172;6.598;2023-03-14T16:16:29;6.00;99.90
51853;DHT22;37894;53.172;6.598;2023-03-14T16:18:55;5.90;99.90
51853;DHT22;37894;53.172;6.598;2023-03-14T16:21:21;5.70;99.90
51853;DHT22;37894;53.172;6.598;2023-03-14T16:23:47;5.90;99.90
51853;DHT22;37894;53.172;6.598;2023-03-14T16:26:18;6.00;99.90
51853;DHT22;37894;53.172;6.598;2023-03-14T16:28:45;5.90;99.90
51853;DHT22;37894;53.172;6.598;2023-03-14T16:31:14;5.80;99.90
51853;DHT22;37894;53.172;6.598;2023-03-14T16:33:41;5.60;99.90
51853;DHT22;37894;53.172;6.598;2023-03-14T16:36:09;5.40;99.90
51853;DHT22;37894;53.172;6.598;2023-03-14T16:38:38;5.20;99.90
51853;DHT22;37894;53.172;6.598;2023-03-14T16:41:10;5.10;99.90
51853;DHT22;37894;53.172;6.598;2023-03-14T16:43:37;5.00;99.90
51853;DHT22;37894;53.172;6.598;2023-03-14T16:46:05;4.90;99.90
51853;DHT22;37894;53.172;6.598;2023-03-14T16:48:31;5.70;99.90
51853;DHT22;37894;53.172;6.598;2023-03-14T16:50:57;4.80;99.90
51853;DHT22;37894;53.172;6.598;2023-03-14T16:53:23;4.80;99.90
51853;DHT22;37894;53.172;6.598;2023-03-14T16:55:50;4.80;99.90
51853;DHT22;37894;53.172;6.598;2023-03-14T16:58:16;4.70;99.90
51853;DHT22;37894;53.172;6.598;2023-03-14T17:00:45;4.70;99.90
51853;DHT22;37894;53.172;6.598;2023-03-14T17:05:37;4.30;99.90
51853;DHT22;37894;53.172;6.598;2023-03-14T17:08:09;4.70;99.90
51853;DHT22;37894;53.172;6.598;2023-03-14T17:10:34;4.30;99.90
51853;DHT22;37894;53.172;6.598;2023-03-14T17:17:52;4.00;99.90
51853;DHT22;37894;53.172;6.598;2023-03-14T17:20:18;4.10;99.90
51853;DHT22;37894;53.172;6.598;2023-03-14T17:22:43;4.50;99.90
51853;DHT22;37894;53.172;6.598;2023-03-14T17:25:09;5.50;99.90
51853;DHT22;37894;53.172;6.598;2023-03-14T17:27:35;4.30;99.90
51853;DHT22;37894;53.172;6.598;2023-03-14T17:30:02;4.50;99.90
51853;DHT22;37894;53.172;6.598;2023-03-14T17:32:28;5.30;99.90
51853;DHT22;37894;53.172;6.598;2023-03-14T17:34:54;3.90;99.90
51853;DHT22;37894;53.172;6.598;2023-03-14T17:37:20;3.80;99.90
51853;DHT22;37894;53.172;6.598;2023-03-14T17:39:45;4.00;99.90
51853;DHT22;37894;53.172;6.598;2023-03-14T17:44:37;4.30;99.90
51853;DHT22;37894;53.172;6.598;2023-03-14T17:47:03;3.90;99.90
51853;DHT22;37894;53.172;6.598;2023-03-14T17:49:29;3.90;99.90
51853;DHT22;37894;53.172;6.598;2023-03-14T17:59:13;3.50;99.90
51853;DHT22;37894;53.172;6.598;2023-03-14T18:01:39;3.10;99.90
51853;DHT22;37894;53.172;6.598;2023-03-14T18:04:06;3.50;99.90
51853;DHT22;37894;53.172;6.598;2023-03-14T18:06:32;3.40;99.90
51853;DHT22;37894;53.172;6.598;2023-03-14T18:08:59;3.10;99.90
51853;DHT22;37894;53.172;6.598;2023-03-14T18:11:26;2.40;99.90
51853;DHT22;37894;53.172;6.598;2023-03-14T18:13:52;2.70;99.90
51853;DHT22;37894;53.172;6.598;2023-03-14T18:16:18;3.10;99.90
51853;DHT22;37894;53.172;6.598;2023-03-14T18:18:46;3.20;99.90
51853;DHT22;37894;53.172;6.598;2023-03-14T18:21:14;3.10;99.90
51853;DHT22;37894;53.172;6.598;2023-03-14T18:23:40;3.10;99.90
51853;DHT22;37894;53.172;6.598;2023-03-14T18:31:09;3.00;99.90
51853;DHT22;37894;53.172;6.598;2023-03-14T18:33:36;3.00;99.90
51853;DHT22;37894;53.172;6.598;2023-03-14T18:36:10;2.80;99.90
51853;DHT22;37894;53.172;6.598;2023-03-14T18:38:36;2.90;99.90
51853;DHT22;37894;53.172;6.598;2023-03-14T18:41:09;2.80;99.90
51853;DHT22;37894;53.172;6.598;2023-03-14T18:43:35;2.90;99.90
51853;DHT22;37894;53.172;6.598;2023-03-14T18:46:01;2.90;99.90
51853;DHT22;37894;53.172;6.598;2023-03-14T18:48:26;2.80;99.90
51853;DHT22;37894;53.172;6.598;2023-03-14T18:55:46;2.80;99.90
51853;DHT22;37894;53.172;6.598;2023-03-14T19:00:38;2.60;99.90
51853;DHT22;37894;53.172;6.598;2023-03-14T19:03:05;3.30;99.90
51853;DHT22;37894;53.172;6.598;2023-03-14T19:05:31;2.70;99.90
51853;DHT22;37894;53.172;6.598;2023-03-14T19:07:56;1.90;99.90
51853;DHT22;37894;53.172;6.598;2023-03-14T19:10:23;2.70;99.90
51853;DHT22;37894;53.172;6.598;2023-03-14T19:12:49;3.70;99.90
51853;DHT22;37894;53.172;6.598;2023-03-14T19:15:15;2.80;99.90
51853;DHT22;37894;53.172;6.598;2023-03-14T19:17:41;3.00;99.90
51853;DHT22;37894;53.172;6.598;2023-03-14T19:20:07;3.00;99.90
51853;DHT22;37894;53.172;6.598;2023-03-14T19:22:33;2.00;99.90
51853;DHT22;37894;53.172;6.598;2023-03-14T19:24:59;2.90;99.90
51853;DHT22;37894;53.172;6.598;2023-03-14T19:29:51;2.70;99.90
51853;DHT22;37894;53.172;6.598;2023-03-14T19:32:18;2.90;99.90
51853;DHT22;37894;53.172;6.598;2023-03-14T19:37:10;2.80;99.90
51853;DHT22;37894;53.172;6.598;2023-03-14T19:39:36;2.20;99.90
51853;DHT22;37894;53.172;6.598;2023-03-14T19:42:01;2.30;99.90
51853;DHT22;37894;53.172;6.598;2023-03-14T19:44:27;2.50;99.90